createdAt,value
2023-04-30T00:00:23.397Z,101088.88
2023-04-30T00:03:09.830Z,101087.47
2023-04-30T00:05:36.661Z,101091.88
2023-04-30T00:08:03.435Z,101095.00
2023-04-30T00:10:29.481Z,101100.50
2023-04-30T00:12:56.438Z,101100.78
2023-04-30T00:15:22.538Z,101098.06
2023-04-30T00:17:48.940Z,101102.09
2023-04-30T00:20:15.261Z,101100.97
2023-04-30T00:22:43.720Z,101097.19
2023-04-30T00:25:10.121Z,101096.16
2023-04-30T00:27:36.886Z,101103.25
2023-04-30T00:30:04.532Z,101104.50
2023-04-30T00:32:31.078Z,101119.88
2023-04-30T00:34:57.255Z,101118.44
2023-04-30T00:37:24.198Z,101111.19
2023-04-30T00:39:50.696Z,101120.97
2023-04-30T00:42:17.024Z,101124.22
2023-04-30T00:44:43.210Z,101120.91
2023-04-30T00:47:09.949Z,101122.03
2023-04-30T00:49:36.109Z,101125.69
2023-04-30T00:52:02.920Z,101127.59
2023-04-30T00:54:29.102Z,101132.75
2023-04-30T00:56:55.686Z,101130.16
2023-04-30T00:59:22.433Z,101135.69
2023-04-30T01:01:49.315Z,101128.94
2023-04-30T01:04:15.540Z,101137.53
2023-04-30T01:06:42.596Z,101135.13
2023-04-30T01:09:09.702Z,101136.84
2023-04-30T01:11:55.068Z,101139.28
2023-04-30T01:14:57.974Z,101132.78
2023-04-30T01:17:37.145Z,101136.59
2023-04-30T01:20:04.043Z,101141.16
2023-04-30T01:22:50.720Z,101143.25
2023-04-30T01:25:35.774Z,101143.00
2023-04-30T01:28:21.701Z,101139.75
2023-04-30T01:30:48.357Z,101146.66
2023-04-30T01:33:15.029Z,101147.28
2023-04-30T01:35:50.141Z,101154.03
2023-04-30T01:38:31.331Z,101143.59
2023-04-30T01:40:59.453Z,101148.88
2023-04-30T01:43:44.212Z,101145.44
2023-04-30T01:46:20.941Z,101152.13
2023-04-30T01:49:38.759Z,101158.91
2023-04-30T01:52:17.225Z,101163.09
2023-04-30T01:55:00.352Z,101163.22
2023-04-30T01:57:31.431Z,101169.00
2023-04-30T01:59:58.109Z,101170.63
2023-04-30T02:02:24.374Z,101184.47
2023-04-30T02:04:51.321Z,101186.78
2023-04-30T02:07:38.600Z,101181.91
2023-04-30T02:10:06.789Z,101190.25
2023-04-30T02:12:33.130Z,101188.41
2023-04-30T02:15:00.544Z,101192.47
2023-04-30T02:17:26.627Z,101201.41
2023-04-30T02:19:53.293Z,101209.13
2023-04-30T02:22:19.594Z,101201.28
2023-04-30T02:24:45.969Z,101202.75
2023-04-30T02:27:12.461Z,101202.38
2023-04-30T02:29:38.990Z,101200.19
2023-04-30T02:32:05.754Z,101206.69
2023-04-30T02:34:32.292Z,101204.97
2023-04-30T02:36:58.341Z,101195.88
2023-04-30T02:39:24.811Z,101203.00
2023-04-30T02:41:50.903Z,101205.72
2023-04-30T02:44:17.334Z,101206.44
2023-04-30T02:46:43.468Z,101206.69
2023-04-30T02:49:09.952Z,101202.28
2023-04-30T02:51:36.588Z,101202.78
2023-04-30T02:54:03.268Z,101208.16
2023-04-30T02:56:29.337Z,101213.81
2023-04-30T02:58:55.855Z,101214.78
2023-04-30T03:01:22.035Z,101225.84
2023-04-30T03:03:51.700Z,101221.91
2023-04-30T03:06:18.284Z,101220.69
2023-04-30T03:08:44.687Z,101223.00
2023-04-30T03:11:10.731Z,101229.63
2023-04-30T03:13:37.147Z,101220.94
2023-04-30T03:16:06.746Z,101222.53
2023-04-30T03:18:33.152Z,101223.88
2023-04-30T03:20:59.254Z,101229.75
2023-04-30T03:23:27.611Z,101235.38
2023-04-30T03:25:53.829Z,101238.56
2023-04-30T03:28:20.792Z,101236.84
2023-04-30T03:30:46.891Z,101242.72
2023-04-30T03:33:13.403Z,101244.06
2023-04-30T03:35:39.535Z,101240.59
2023-04-30T03:38:05.974Z,101245.88
2023-04-30T03:40:32.069Z,101256.69
2023-04-30T03:42:58.460Z,101258.25
2023-04-30T03:45:24.643Z,101269.53
2023-04-30T03:47:51.973Z,101265.22
2023-04-30T03:50:18.619Z,101272.91
2023-04-30T03:52:45.594Z,101283.97
2023-04-30T03:55:13.562Z,101279.69
2023-04-30T03:57:40.015Z,101284.22
2023-04-30T04:00:09.408Z,101293.28
2023-04-30T04:02:46.177Z,101292.41
2023-04-30T04:05:12.438Z,101297.56
2023-04-30T04:07:39.110Z,101297.63
2023-04-30T04:10:05.809Z,101298.81
2023-04-30T04:12:32.260Z,101298.81
2023-04-30T04:14:58.436Z,101305.69
2023-04-30T04:17:25.018Z,101310.03
2023-04-30T04:19:51.458Z,101310.94
2023-04-30T04:22:18.191Z,101309.81
2023-04-30T04:24:45.352Z,101322.00
2023-04-30T04:27:15.683Z,101317.59
2023-04-30T04:29:42.283Z,101326.44
2023-04-30T04:32:09.527Z,101329.84
2023-04-30T04:34:38.119Z,101337.13
2023-04-30T04:37:04.689Z,101342.41
2023-04-30T04:39:30.868Z,101346.34
2023-04-30T04:41:57.644Z,101339.44
2023-04-30T04:44:25.392Z,101342.41
2023-04-30T04:46:53.219Z,101343.63
2023-04-30T04:49:20.317Z,101344.25
2023-04-30T04:51:46.868Z,101351.25
2023-04-30T04:54:13.425Z,101353.97
2023-04-30T04:56:40.254Z,101358.38
2023-04-30T04:59:07.471Z,101366.22
2023-04-30T05:01:34.760Z,101359.00
2023-04-30T05:04:01.119Z,101369.66
2023-04-30T05:06:28.169Z,101361.56
2023-04-30T05:08:55.395Z,101362.56
2023-04-30T05:11:22.579Z,101371.75
2023-04-30T05:13:51.096Z,101377.53
2023-04-30T05:16:17.569Z,101371.75
2023-04-30T05:18:43.902Z,101373.09
2023-04-30T05:21:10.613Z,101376.44
2023-04-30T05:23:36.896Z,101385.38
2023-04-30T05:26:03.853Z,101393.25
2023-04-30T05:28:30.325Z,101396.06
2023-04-30T05:30:56.749Z,101398.13
2023-04-30T05:33:22.987Z,101397.97
2023-04-30T05:35:49.741Z,101407.38
2023-04-30T05:38:15.940Z,101415.22
2023-04-30T05:40:42.597Z,101416.00
2023-04-30T05:43:08.768Z,101418.28
2023-04-30T05:45:35.361Z,101419.66
2023-04-30T05:48:01.553Z,101429.09
2023-04-30T05:50:28.075Z,101428.28
2023-04-30T05:52:54.325Z,101428.03
2023-04-30T05:55:20.831Z,101440.38
2023-04-30T05:57:47.310Z,101436.28
2023-04-30T06:00:15.338Z,101428.97
2023-04-30T06:02:41.548Z,101425.13
2023-04-30T06:05:08.441Z,101443.06
2023-04-30T06:07:34.758Z,101441.28
2023-04-30T06:10:01.580Z,101438.75
2023-04-30T06:12:27.945Z,101448.38
2023-04-30T06:14:54.882Z,101456.41
2023-04-30T06:17:21.268Z,101462.63
2023-04-30T06:19:47.681Z,101460.91
2023-04-30T06:22:13.962Z,101467.44
2023-04-30T06:24:40.427Z,101458.53
2023-04-30T06:27:06.601Z,101466.91
2023-04-30T06:29:33.001Z,101468.34
2023-04-30T06:31:59.084Z,101472.72
2023-04-30T06:34:26.046Z,101474.41
2023-04-30T06:36:52.422Z,101463.53
2023-04-30T06:39:19.112Z,101479.88
2023-04-30T06:41:46.676Z,101478.88
2023-04-30T06:44:14.523Z,101470.84
2023-04-30T06:46:40.826Z,101466.44
2023-04-30T06:49:07.287Z,101471.53
2023-04-30T06:51:33.664Z,101470.84
2023-04-30T06:54:00.215Z,101480.84
2023-04-30T06:56:26.585Z,101479.41
2023-04-30T06:58:53.203Z,101475.19
2023-04-30T07:01:19.821Z,101471.34
2023-04-30T07:03:46.434Z,101482.81
2023-04-30T07:06:12.864Z,101477.16
2023-04-30T07:08:40.597Z,101477.88
2023-04-30T07:11:07.245Z,101471.88
2023-04-30T07:13:33.905Z,101473.78
2023-04-30T07:16:00.654Z,101481.31
2023-04-30T07:18:27.180Z,101480.69
2023-04-30T07:20:54.168Z,101478.75
2023-04-30T07:23:21.187Z,101484.50
2023-04-30T07:25:50.765Z,101488.31
2023-04-30T07:28:17.354Z,101482.63
2023-04-30T07:30:43.586Z,101483.31
2023-04-30T07:33:11.660Z,101483.16
2023-04-30T07:35:38.076Z,101490.69
2023-04-30T07:38:05.187Z,101492.78
2023-04-30T07:40:36.383Z,101494.09
2023-04-30T07:43:04.288Z,101501.47
2023-04-30T07:45:31.176Z,101491.16
2023-04-30T07:47:57.727Z,101489.00
2023-04-30T07:50:24.040Z,101492.22
2023-04-30T07:52:50.620Z,101486.41
2023-04-30T07:55:16.878Z,101489.53
2023-04-30T07:57:43.355Z,101495.97
2023-04-30T08:00:09.825Z,101496.81
2023-04-30T08:02:40.083Z,101508.84
2023-04-30T08:05:07.130Z,101508.13
2023-04-30T08:07:33.599Z,101505.50
2023-04-30T08:09:59.739Z,101503.16
2023-04-30T08:12:26.354Z,101506.72
2023-04-30T08:15:03.457Z,101508.69
2023-04-30T08:17:30.995Z,101515.63
2023-04-30T08:19:57.279Z,101504.34
2023-04-30T08:22:24.076Z,101511.34
2023-04-30T08:24:50.783Z,101507.94
2023-04-30T08:27:17.632Z,101512.94
2023-04-30T08:29:43.783Z,101514.94
2023-04-30T08:32:10.553Z,101513.63
2023-04-30T08:34:36.874Z,101526.25
2023-04-30T08:37:03.428Z,101520.66
2023-04-30T08:39:29.697Z,101520.50
2023-04-30T08:41:57.090Z,101509.13
2023-04-30T08:44:23.336Z,101521.13
2023-04-30T08:46:54.201Z,101529.31
2023-04-30T08:49:24.938Z,101530.94
2023-04-30T08:51:52.306Z,101529.03
2023-04-30T08:54:18.879Z,101531.31
2023-04-30T08:56:45.695Z,101530.09
2023-04-30T08:59:12.589Z,101528.91
2023-04-30T09:01:39.327Z,101527.03
2023-04-30T09:04:05.984Z,101527.66
2023-04-30T09:06:32.760Z,101531.75
2023-04-30T09:09:08.836Z,101531.19
2023-04-30T09:11:35.343Z,101527.41
2023-04-30T09:14:02.068Z,101532.88
2023-04-30T09:16:46.113Z,101533.56
2023-04-30T09:19:32.481Z,101541.09
2023-04-30T09:21:59.089Z,101539.38
2023-04-30T09:24:25.205Z,101551.16
2023-04-30T09:26:51.611Z,101546.53
2023-04-30T09:29:17.664Z,101548.00
2023-04-30T09:31:46.343Z,101542.34
2023-04-30T09:34:13.116Z,101550.59
2023-04-30T09:36:54.130Z,101552.75
2023-04-30T09:39:20.747Z,101548.09
2023-04-30T09:41:47.392Z,101543.81
2023-04-30T09:44:26.973Z,101547.41
2023-04-30T09:46:53.411Z,101540.41
2023-04-30T09:49:20.171Z,101547.56
2023-04-30T09:51:55.134Z,101553.56
2023-04-30T09:54:27.310Z,101548.72
2023-04-30T09:56:57.253Z,101535.97
2023-04-30T09:59:30.031Z,101531.16
2023-04-30T10:02:00.877Z,101535.97
2023-04-30T10:04:33.922Z,101526.38
2023-04-30T10:07:22.656Z,101533.91
2023-04-30T10:09:58.078Z,101525.00
2023-04-30T10:12:39.895Z,101513.88
2023-04-30T10:15:14.361Z,101527.59
2023-04-30T10:17:43.811Z,101533.13
2023-04-30T10:20:12.178Z,101530.22
2023-04-30T10:22:41.062Z,101529.47
2023-04-30T10:25:10.683Z,101533.69
2023-04-30T10:27:37.370Z,101528.84
2023-04-30T10:30:05.141Z,101523.69
2023-04-30T10:32:44.351Z,101523.97
2023-04-30T10:35:26.203Z,101522.22
2023-04-30T10:38:21.732Z,101519.03
2023-04-30T10:40:49.057Z,101512.50
2023-04-30T10:43:20.354Z,101512.97
2023-04-30T10:45:48.032Z,101516.06
2023-04-30T10:48:19.394Z,101515.06
2023-04-30T10:50:46.427Z,101507.38
2023-04-30T10:53:19.142Z,101503.91
2023-04-30T10:56:06.907Z,101516.44
2023-04-30T10:58:39.972Z,101503.53
2023-04-30T11:01:13.208Z,101508.03
2023-04-30T11:03:42.490Z,101498.34
2023-04-30T11:06:19.248Z,101504.03
2023-04-30T11:08:46.213Z,101506.03
2023-04-30T11:11:20.280Z,101494.38
2023-04-30T11:13:57.195Z,101500.81
2023-04-30T11:16:29.817Z,101496.09
2023-04-30T11:19:12.572Z,101505.06
2023-04-30T11:22:03.623Z,101502.78
2023-04-30T11:24:52.845Z,101508.81
2023-04-30T11:27:27.168Z,101502.09
2023-04-30T11:29:55.072Z,101503.56
2023-04-30T11:32:23.479Z,101509.53
2023-04-30T11:34:50.408Z,101509.38
2023-04-30T11:37:33.878Z,101508.38
2023-04-30T11:40:03.267Z,101510.50
2023-04-30T11:42:34.139Z,101502.94
2023-04-30T11:45:12.229Z,101505.97
2023-04-30T11:47:45.561Z,101500.13
2023-04-30T11:50:17.134Z,101508.69
2023-04-30T11:52:49.685Z,101513.94
2023-04-30T11:55:18.249Z,101503.44
2023-04-30T11:57:46.968Z,101506.22
2023-04-30T12:00:18.337Z,101508.47
2023-04-30T12:02:46.543Z,101512.97
2023-04-30T12:05:24.309Z,101496.84
2023-04-30T12:07:56.258Z,101494.78
2023-04-30T12:10:26.895Z,101493.47
2023-04-30T12:12:54.025Z,101488.41
2023-04-30T12:15:25.733Z,101492.00
2023-04-30T12:17:54.463Z,101493.16
2023-04-30T12:20:22.459Z,101491.00
2023-04-30T12:22:49.717Z,101488.38
2023-04-30T12:25:22.286Z,101495.75
2023-04-30T12:27:51.146Z,101487.84
2023-04-30T12:30:26.046Z,101489.56
2023-04-30T12:32:56.081Z,101483.63
2023-04-30T12:35:23.730Z,101490.63
2023-04-30T12:37:51.781Z,101487.91
2023-04-30T12:40:19.900Z,101487.34
2023-04-30T12:42:49.053Z,101498.91
2023-04-30T12:45:47.921Z,101476.91
2023-04-30T12:48:16.550Z,101476.19
2023-04-30T12:51:00.512Z,101481.22
2023-04-30T12:53:28.334Z,101474.06
2023-04-30T12:56:14.685Z,101471.50
2023-04-30T12:58:44.804Z,101466.53
2023-04-30T13:01:12.472Z,101475.91
2023-04-30T13:03:39.017Z,101460.69
2023-04-30T13:06:06.246Z,101465.63
2023-04-30T13:08:37.228Z,101471.88
2023-04-30T13:11:10.882Z,101469.88
2023-04-30T13:13:37.939Z,101471.66
2023-04-30T13:16:05.797Z,101476.94
2023-04-30T13:18:32.999Z,101461.84
2023-04-30T13:20:59.481Z,101459.81
2023-04-30T13:23:25.982Z,101462.25
2023-04-30T13:25:52.581Z,101462.59
2023-04-30T13:28:18.742Z,101463.09
2023-04-30T13:30:45.295Z,101465.16
2023-04-30T13:33:11.911Z,101460.91
2023-04-30T13:35:39.002Z,101469.28
2023-04-30T13:38:05.668Z,101458.31
2023-04-30T13:40:32.417Z,101456.44
2023-04-30T13:42:58.851Z,101462.59
2023-04-30T13:45:25.544Z,101457.81
2023-04-30T13:47:51.905Z,101458.13
2023-04-30T13:50:18.613Z,101460.22
2023-04-30T13:52:45.151Z,101449.63
2023-04-30T13:55:11.922Z,101453.53
2023-04-30T13:57:39.019Z,101452.00
2023-04-30T14:00:07.221Z,101452.16
2023-04-30T14:02:34.244Z,101448.41
2023-04-30T14:05:06.341Z,101453.34
2023-04-30T14:07:33.257Z,101446.13
2023-04-30T14:09:59.896Z,101444.97
2023-04-30T14:12:28.673Z,101450.97
2023-04-30T14:14:55.850Z,101442.44
2023-04-30T14:17:22.108Z,101442.25
2023-04-30T14:19:48.738Z,101434.22
2023-04-30T14:22:16.259Z,101438.84
2023-04-30T14:24:43.028Z,101434.75
2023-04-30T14:27:09.120Z,101430.28
2023-04-30T14:29:35.476Z,101438.31
2023-04-30T14:32:01.682Z,101423.81
2023-04-30T14:34:30.100Z,101433.38
2023-04-30T14:37:01.157Z,101436.09
2023-04-30T14:39:27.572Z,101430.28
2023-04-30T14:41:53.784Z,101441.91
2023-04-30T14:44:23.516Z,101439.00
2023-04-30T14:46:50.292Z,101433.19
2023-04-30T14:49:16.729Z,101430.56
2023-04-30T14:51:42.916Z,101442.56
2023-04-30T14:54:09.321Z,101433.50
2023-04-30T14:56:35.458Z,101430.91
2023-04-30T14:59:02.509Z,101432.25
2023-04-30T15:01:29.709Z,101436.56
2023-04-30T15:03:58.501Z,101447.50
2023-04-30T15:06:25.377Z,101431.91
2023-04-30T15:08:51.762Z,101437.91
2023-04-30T15:11:17.925Z,101435.94
2023-04-30T15:13:45.147Z,101433.69
2023-04-30T15:16:11.648Z,101435.63
2023-04-30T15:18:38.432Z,101436.69
2023-04-30T15:21:04.702Z,101434.56
2023-04-30T15:23:31.229Z,101428.59
2023-04-30T15:25:57.344Z,101433.03
2023-04-30T15:28:24.032Z,101430.47
2023-04-30T15:30:51.597Z,101438.31
2023-04-30T15:33:23.669Z,101428.91
2023-04-30T15:35:49.793Z,101431.06
2023-04-30T15:38:16.238Z,101433.66
2023-04-30T15:40:42.411Z,101432.16
2023-04-30T15:43:09.001Z,101430.44
2023-04-30T15:45:35.258Z,101428.69
2023-04-30T15:48:01.787Z,101427.81
2023-04-30T15:50:29.193Z,101431.44
2023-04-30T15:52:55.869Z,101435.06
2023-04-30T15:55:22.771Z,101439.25
2023-04-30T15:57:49.731Z,101431.63
2023-04-30T16:00:18.808Z,101431.16
2023-04-30T16:02:45.340Z,101430.78
2023-04-30T16:05:11.632Z,101426.28
2023-04-30T16:07:38.609Z,101429.22
2023-04-30T16:10:06.246Z,101433.34
2023-04-30T16:12:33.551Z,101427.53
2023-04-30T16:14:59.638Z,101425.84
2023-04-30T16:17:26.102Z,101424.50
2023-04-30T16:19:52.264Z,101427.56
2023-04-30T16:22:20.643Z,101427.69
2023-04-30T16:24:46.915Z,101424.31
2023-04-30T16:27:13.373Z,101419.34
2023-04-30T16:29:39.526Z,101424.41
2023-04-30T16:32:06.549Z,101428.97
2023-04-30T16:34:32.754Z,101422.66
2023-04-30T16:36:59.222Z,101431.75
2023-04-30T16:39:25.347Z,101425.53
2023-04-30T16:41:51.905Z,101419.56
2023-04-30T16:44:18.013Z,101421.47
2023-04-30T16:46:44.446Z,101410.25
2023-04-30T16:49:10.587Z,101416.03
2023-04-30T16:51:37.056Z,101409.63
2023-04-30T16:54:03.478Z,101412.19
2023-04-30T16:56:30.408Z,101415.94
2023-04-30T16:58:57.669Z,101420.38
2023-04-30T17:01:24.288Z,101421.63
2023-04-30T17:03:50.973Z,101414.75
2023-04-30T17:06:17.812Z,101420.22
2023-04-30T17:08:44.209Z,101410.31
2023-04-30T17:11:10.950Z,101412.50
2023-04-30T17:13:37.488Z,101415.56
2023-04-30T17:16:07.323Z,101416.50
2023-04-30T17:18:34.218Z,101417.44
2023-04-30T17:21:04.132Z,101412.06
2023-04-30T17:23:33.966Z,101409.72
2023-04-30T17:26:00.905Z,101424.66
2023-04-30T17:28:27.281Z,101424.81
2023-04-30T17:30:54.559Z,101422.56
2023-04-30T17:33:21.444Z,101420.78
2023-04-30T17:35:48.498Z,101421.38
2023-04-30T17:38:15.288Z,101437.41
2023-04-30T17:40:41.946Z,101433.81
2023-04-30T17:43:08.326Z,101433.66
2023-04-30T17:45:34.798Z,101441.25
2023-04-30T17:48:04.305Z,101437.88
2023-04-30T17:50:31.490Z,101440.34
2023-04-30T17:52:57.872Z,101436.06
2023-04-30T17:55:25.066Z,101434.94
2023-04-30T17:57:51.249Z,101437.22
2023-04-30T18:00:17.883Z,101441.84
2023-04-30T18:02:45.303Z,101434.69
2023-04-30T18:05:12.085Z,101442.59
2023-04-30T18:07:38.335Z,101442.19
2023-04-30T18:10:05.633Z,101436.88
2023-04-30T18:12:31.901Z,101441.78
2023-04-30T18:14:58.953Z,101434.66
2023-04-30T18:17:25.270Z,101442.09
2023-04-30T18:19:51.799Z,101444.72
2023-04-30T18:22:19.082Z,101449.31
2023-04-30T18:24:46.429Z,101453.03
2023-04-30T18:27:13.333Z,101451.31
2023-04-30T18:29:41.222Z,101456.75
2023-04-30T18:32:07.971Z,101458.72
2023-04-30T18:34:35.033Z,101450.00
2023-04-30T18:37:01.518Z,101450.16
2023-04-30T18:39:30.543Z,101453.69
2023-04-30T18:41:59.624Z,101451.09
2023-04-30T18:44:33.717Z,101452.78
2023-04-30T18:47:00.174Z,101453.34
2023-04-30T18:49:26.771Z,101461.47
2023-04-30T18:51:54.572Z,101461.88
2023-04-30T18:54:21.603Z,101463.44
2023-04-30T18:56:48.074Z,101456.28
2023-04-30T18:59:15.932Z,101467.53
2023-04-30T19:01:42.704Z,101464.09
2023-04-30T19:04:13.022Z,101468.47
2023-04-30T19:06:39.722Z,101473.63
2023-04-30T19:09:09.660Z,101465.72
2023-04-30T19:11:36.135Z,101468.78
2023-04-30T19:14:03.166Z,101473.28
2023-04-30T19:16:29.898Z,101474.94
2023-04-30T19:18:57.190Z,101472.03
2023-04-30T19:21:23.723Z,101476.13
2023-04-30T19:23:50.687Z,101478.63
2023-04-30T19:26:18.190Z,101469.63
2023-04-30T19:28:45.305Z,101468.66
2023-04-30T19:31:11.995Z,101473.88
2023-04-30T19:33:40.361Z,101476.66
2023-04-30T19:36:06.799Z,101484.78
2023-04-30T19:38:33.640Z,101483.94
2023-04-30T19:41:00.772Z,101486.31
2023-04-30T19:43:27.876Z,101489.75
2023-04-30T19:45:56.294Z,101481.31
2023-04-30T19:48:23.998Z,101481.94
2023-04-30T19:50:52.752Z,101484.19
2023-04-30T19:53:20.789Z,101487.66
2023-04-30T19:55:47.336Z,101503.53
2023-04-30T19:58:14.204Z,101502.06
2023-04-30T20:00:42.407Z,101494.69
2023-04-30T20:03:09.526Z,101496.41
2023-04-30T20:05:37.319Z,101494.44
2023-04-30T20:08:05.946Z,101499.59
2023-04-30T20:10:35.422Z,101501.31
2023-04-30T20:13:03.264Z,101501.28
2023-04-30T20:15:30.005Z,101500.94
2023-04-30T20:17:57.679Z,101495.66
2023-04-30T20:20:24.435Z,101501.81
2023-04-30T20:22:53.093Z,101506.00
2023-04-30T20:25:21.267Z,101509.47
2023-04-30T20:27:49.643Z,101500.25
2023-04-30T20:30:16.707Z,101496.81
2023-04-30T20:32:44.303Z,101502.22
2023-04-30T20:35:11.013Z,101500.38
2023-04-30T20:37:38.032Z,101497.41
2023-04-30T20:40:07.444Z,101505.16
2023-04-30T20:42:34.492Z,101491.53
2023-04-30T20:45:02.529Z,101502.81
2023-04-30T20:47:31.840Z,101505.03
2023-04-30T20:49:58.564Z,101512.41
2023-04-30T20:52:25.552Z,101508.22
2023-04-30T20:54:51.921Z,101506.97
2023-04-30T20:57:18.704Z,101505.75
2023-04-30T20:59:45.177Z,101507.81
2023-04-30T21:02:12.083Z,101512.09
2023-04-30T21:04:39.003Z,101505.69
2023-04-30T21:07:05.666Z,101508.63
2023-04-30T21:09:34.063Z,101517.44
2023-04-30T21:12:04.823Z,101522.03
2023-04-30T21:14:32.141Z,101525.19
2023-04-30T21:16:59.178Z,101523.44
2023-04-30T21:19:25.937Z,101525.03
2023-04-30T21:21:52.996Z,101526.00
2023-04-30T21:24:19.281Z,101518.44
2023-04-30T21:26:46.007Z,101520.50
2023-04-30T21:29:12.246Z,101523.81
2023-04-30T21:31:41.225Z,101528.72
2023-04-30T21:34:07.667Z,101530.44
2023-04-30T21:36:35.852Z,101527.09
2023-04-30T21:39:03.343Z,101533.94
2023-04-30T21:41:31.411Z,101530.72
2023-04-30T21:43:57.919Z,101528.47
2023-04-30T21:46:24.826Z,101531.41
2023-04-30T21:48:53.677Z,101540.81
2023-04-30T21:51:21.562Z,101543.72
2023-04-30T21:53:47.716Z,101544.28
2023-04-30T21:56:14.371Z,101543.66
2023-04-30T21:58:40.599Z,101542.19
2023-04-30T22:01:07.341Z,101548.66
2023-04-30T22:03:34.539Z,101546.19
2023-04-30T22:06:01.198Z,101552.78
2023-04-30T22:08:27.764Z,101556.63
2023-04-30T22:10:58.543Z,101551.91
2023-04-30T22:13:28.633Z,101546.59
2023-04-30T22:15:55.397Z,101541.97
2023-04-30T22:18:23.649Z,101539.84
2023-04-30T22:20:50.910Z,101549.13
2023-04-30T22:23:20.309Z,101553.53
2023-04-30T22:25:46.794Z,101551.38
2023-04-30T22:28:15.969Z,101552.25
2023-04-30T22:30:42.687Z,101543.94
2023-04-30T22:33:08.785Z,101551.69
2023-04-30T22:35:37.839Z,101552.31
2023-04-30T22:38:05.129Z,101551.69
2023-04-30T22:40:33.465Z,101546.38
2023-04-30T22:43:00.586Z,101549.69
2023-04-30T22:45:29.341Z,101550.97
2023-04-30T22:47:58.031Z,101551.81
2023-04-30T22:50:25.869Z,101552.69
2023-04-30T22:52:52.439Z,101552.16
2023-04-30T22:55:18.932Z,101555.59
2023-04-30T22:57:45.113Z,101552.72
2023-04-30T23:00:12.213Z,101547.97
2023-04-30T23:02:38.389Z,101553.88
2023-04-30T23:05:05.382Z,101557.56
2023-04-30T23:07:31.987Z,101559.28
2023-04-30T23:09:58.745Z,101553.56
2023-04-30T23:12:24.987Z,101564.59
2023-04-30T23:14:51.401Z,101562.66
2023-04-30T23:17:17.531Z,101560.06
2023-04-30T23:19:44.072Z,101567.41
2023-04-30T23:22:10.336Z,101554.66
2023-04-30T23:24:37.900Z,101572.47
2023-04-30T23:27:04.243Z,101564.34
2023-04-30T23:29:30.757Z,101555.16
2023-04-30T23:31:57.075Z,101559.34
2023-04-30T23:34:23.528Z,101560.44
2023-04-30T23:36:49.760Z,101560.84
2023-04-30T23:39:16.258Z,101555.44
2023-04-30T23:41:42.327Z,101553.22
2023-04-30T23:44:08.684Z,101560.00
2023-04-30T23:46:35.229Z,101555.03
2023-04-30T23:49:01.677Z,101554.63
2023-04-30T23:51:27.758Z,101553.16
2023-04-30T23:53:54.075Z,101552.84
2023-04-30T23:56:20.282Z,101548.47
2023-04-30T23:58:46.592Z,101553.53
